sensor_id;sensor_type;location;lat;lon;timestamp;pressure;altitude;pressure_sealevel;temperature;humidity
64158;BME280;50449;51.528;5.076;2023-05-10T00:01:20;100734.19;;;19.88;52.88
64158;BME280;50449;51.528;5.076;2023-05-10T00:03:46;100734.19;;;19.88;53.13
64158;BME280;50449;51.528;5.076;2023-05-10T00:06:11;100730.97;;;19.86;53.43
64158;BME280;50449;51.528;5.076;2023-05-10T00:08:37;100732.59;;;19.87;53.35
64158;BME280;50449;51.528;5.076;2023-05-10T00:11:02;100732.88;;;19.85;52.92
64158;BME280;50449;51.528;5.076;2023-05-10T00:13:28;100734.00;;;19.84;53.25
64158;BME280;50449;51.528;5.076;2023-05-10T00:15:53;100735.16;;;19.83;52.91
64158;BME280;50449;51.528;5.076;2023-05-10T00:18:19;100737.06;;;19.83;53.25
64158;BME280;50449;51.528;5.076;2023-05-10T00:20:44;100736.56;;;19.81;53.41
64158;BME280;50449;51.528;5.076;2023-05-10T00:23:11;100738.47;;;19.80;53.36
64158;BME280;50449;51.528;5.076;2023-05-10T00:25:36;100740.41;;;19.80;52.94
64158;BME280;50449;51.528;5.076;2023-05-10T00:28:02;100739.59;;;19.79;53.28
64158;BME280;50449;51.528;5.076;2023-05-10T00:30:27;100744.28;;;19.79;53.30
64158;BME280;50449;51.528;5.076;2023-05-10T00:32:53;100744.28;;;19.79;53.01
64158;BME280;50449;51.528;5.076;2023-05-10T00:35:18;100735.25;;;19.78;53.09
64158;BME280;50449;51.528;5.076;2023-05-10T00:37:44;100737.16;;;19.78;52.95
64158;BME280;50449;51.528;5.076;2023-05-10T00:40:10;100732.81;;;19.77;52.88
64158;BME280;50449;51.528;5.076;2023-05-10T00:42:35;100741.03;;;19.77;52.85
64158;BME280;50449;51.528;5.076;2023-05-10T00:45:01;100736.66;;;19.76;53.06
64158;BME280;50449;51.528;5.076;2023-05-10T00:47:27;100727.94;;;19.74;53.33
64158;BME280;50449;51.528;5.076;2023-05-10T00:49:52;100741.63;;;19.74;53.29
64158;BME280;50449;51.528;5.076;2023-05-10T00:52:19;100720.31;;;19.71;52.95
64158;BME280;50449;51.528;5.076;2023-05-10T00:54:44;100717.59;;;19.71;52.93
64158;BME280;50449;51.528;5.076;2023-05-10T00:57:10;100723.88;;;19.71;53.15
64158;BME280;50449;51.528;5.076;2023-05-10T00:59:36;100716.75;;;19.70;53.00
64158;BME280;50449;51.528;5.076;2023-05-10T01:02:01;100718.69;;;19.70;53.35
64158;BME280;50449;51.528;5.076;2023-05-10T01:04:27;100720.91;;;19.67;52.95
64158;BME280;50449;51.528;5.076;2023-05-10T01:06:53;100718.19;;;19.67;52.89
64158;BME280;50449;51.528;5.076;2023-05-10T01:09:20;100718.19;;;19.67;53.43
64158;BME280;50449;51.528;5.076;2023-05-10T01:11:46;100717.66;;;19.65;53.01
64158;BME280;50449;51.528;5.076;2023-05-10T01:14:12;100714.91;;;19.65;52.94
64158;BME280;50449;51.528;5.076;2023-05-10T01:16:40;100716.00;;;19.64;52.99
64158;BME280;50449;51.528;5.076;2023-05-10T01:19:12;100715.72;;;19.66;53.37
64158;BME280;50449;51.528;5.076;2023-05-10T01:21:48;100722.31;;;19.65;52.91
64158;BME280;50449;51.528;5.076;2023-05-10T01:30:05;100729.31;;;19.57;53.38
64158;BME280;50449;51.528;5.076;2023-05-10T01:35:20;100728.78;;;19.55;53.46
64158;BME280;50449;51.528;5.076;2023-05-10T01:38:07;100728.50;;;19.57;53.32
64158;BME280;50449;51.528;5.076;2023-05-10T01:43:34;100740.06;;;19.54;53.31
64158;BME280;50449;51.528;5.076;2023-05-10T01:46:12;100743.63;;;19.54;53.11
64158;BME280;50449;51.528;5.076;2023-05-10T01:48:51;100747.16;;;19.55;53.53
64158;BME280;50449;51.528;5.076;2023-05-10T01:51:23;100736.53;;;19.53;53.23
64158;BME280;50449;51.528;5.076;2023-05-10T01:54:02;100739.25;;;19.53;53.38
64158;BME280;50449;51.528;5.076;2023-05-10T01:56:30;100738.94;;;19.55;53.42
64158;BME280;50449;51.528;5.076;2023-05-10T01:58:57;100739.97;;;19.59;53.16
64158;BME280;50449;51.528;5.076;2023-05-10T02:01:24;100738.75;;;19.51;53.36
64158;BME280;50449;51.528;5.076;2023-05-10T02:03:51;100741.78;;;19.50;53.43
64158;BME280;50449;51.528;5.076;2023-05-10T02:06:18;100736.31;;;19.50;53.10
64158;BME280;50449;51.528;5.076;2023-05-10T02:08:45;100736.31;;;19.50;53.42
64158;BME280;50449;51.528;5.076;2023-05-10T02:11:13;100737.09;;;19.50;53.12
64158;BME280;50449;51.528;5.076;2023-05-10T02:13:39;100743.72;;;19.49;52.81
64158;BME280;50449;51.528;5.076;2023-05-10T02:16:06;100747.25;;;19.50;53.46
64158;BME280;50449;51.528;5.076;2023-05-10T02:18:33;100740.97;;;19.49;53.30
64158;BME280;50449;51.528;5.076;2023-05-10T02:21:01;100744.50;;;19.50;52.81
64158;BME280;50449;51.528;5.076;2023-05-10T02:23:28;100751.94;;;19.49;52.95
64158;BME280;50449;51.528;5.076;2023-05-10T02:25:55;100747.25;;;19.50;53.35
64158;BME280;50449;51.528;5.076;2023-05-10T02:28:23;100757.41;;;19.49;53.08
64158;BME280;50449;51.528;5.076;2023-05-10T02:30:50;100753.88;;;19.49;53.18
64158;BME280;50449;51.528;5.076;2023-05-10T02:33:17;100754.66;;;19.49;53.09
64158;BME280;50449;51.528;5.076;2023-05-10T02:35:43;100755.78;;;19.48;53.22
64158;BME280;50449;51.528;5.076;2023-05-10T02:38:10;100756.91;;;19.47;52.90
64158;BME280;50449;51.528;5.076;2023-05-10T02:40:37;100760.44;;;19.48;53.03
64158;BME280;50449;51.528;5.076;2023-05-10T02:43:04;100761.56;;;19.46;53.36
64158;BME280;50449;51.528;5.076;2023-05-10T02:45:32;100767.03;;;19.46;53.31
64158;BME280;50449;51.528;5.076;2023-05-10T02:47:58;100771.72;;;19.46;53.29
64158;BME280;50449;51.528;5.076;2023-05-10T02:50:27;100767.34;;;19.45;53.15
64158;BME280;50449;51.528;5.076;2023-05-10T02:52:57;100765.72;;;19.44;53.18
64158;BME280;50449;51.528;5.076;2023-05-10T02:58:01;100773.41;;;19.42;53.19
64158;BME280;50449;51.528;5.076;2023-05-10T03:00:27;100775.34;;;19.41;53.20
64158;BME280;50449;51.528;5.076;2023-05-10T03:02:53;100769.88;;;19.41;53.34
64158;BME280;50449;51.528;5.076;2023-05-10T03:05:19;100777.28;;;19.41;53.11
64158;BME280;50449;51.528;5.076;2023-05-10T03:07:45;100781.13;;;19.40;53.24
64158;BME280;50449;51.528;5.076;2023-05-10T03:10:11;100771.81;;;19.41;53.40
64158;BME280;50449;51.528;5.076;2023-05-10T03:15:25;100771.00;;;19.40;52.93
64158;BME280;50449;51.528;5.076;2023-05-10T03:18:06;100766.63;;;19.39;53.21
64158;BME280;50449;51.528;5.076;2023-05-10T03:20:41;100781.44;;;19.38;53.07
64158;BME280;50449;51.528;5.076;2023-05-10T03:23:20;100773.50;;;19.37;52.96
64158;BME280;50449;51.528;5.076;2023-05-10T03:25:48;100766.72;;;19.34;52.87
64158;BME280;50449;51.528;5.076;2023-05-10T03:28:15;100783.16;;;19.34;52.97
64158;BME280;50449;51.528;5.076;2023-05-10T03:30:42;100779.88;;;19.32;53.05
64158;BME280;50449;51.528;5.076;2023-05-10T03:33:08;100788.09;;;19.32;53.41
64158;BME280;50449;51.528;5.076;2023-05-10T03:35:34;100784.56;;;19.32;53.24
64158;BME280;50449;51.528;5.076;2023-05-10T03:38:00;100791.69;;;19.33;53.37
64158;BME280;50449;51.528;5.076;2023-05-10T03:40:26;100792.25;;;19.30;53.44
64158;BME280;50449;51.528;5.076;2023-05-10T03:42:54;100794.41;;;19.33;53.14
64158;BME280;50449;51.528;5.076;2023-05-10T03:45:20;100788.41;;;19.31;53.48
64158;BME280;50449;51.528;5.076;2023-05-10T03:47:45;100800.19;;;19.31;53.27
64158;BME280;50449;51.528;5.076;2023-05-10T03:50:11;100796.63;;;19.31;53.09
64158;BME280;50449;51.528;5.076;2023-05-10T03:52:36;100793.06;;;19.30;53.32
64158;BME280;50449;51.528;5.076;2023-05-10T03:55:04;100792.88;;;19.27;53.53
64158;BME280;50449;51.528;5.076;2023-05-10T03:57:30;100799.94;;;19.28;53.08
64158;BME280;50449;51.528;5.076;2023-05-10T03:59:55;100801.59;;;19.29;53.34
64158;BME280;50449;51.528;5.076;2023-05-10T04:02:21;100800.28;;;19.26;53.56
64158;BME280;50449;51.528;5.076;2023-05-10T04:04:46;100811.22;;;19.26;53.55
64158;BME280;50449;51.528;5.076;2023-05-10T04:07:12;100800.28;;;19.26;53.63
64158;BME280;50449;51.528;5.076;2023-05-10T04:09:37;100803.31;;;19.24;53.56
64158;BME280;50449;51.528;5.076;2023-05-10T04:12:02;100806.03;;;19.24;53.27
64158;BME280;50449;51.528;5.076;2023-05-10T04:14:28;100802.50;;;19.24;53.13
64158;BME280;50449;51.528;5.076;2023-05-10T04:16:53;100802.50;;;19.24;53.44
64158;BME280;50449;51.528;5.076;2023-05-10T04:19:19;100803.63;;;19.23;53.22
64158;BME280;50449;51.528;5.076;2023-05-10T04:21:44;100800.88;;;19.23;53.15
64158;BME280;50449;51.528;5.076;2023-05-10T04:24:10;100804.44;;;19.23;53.06
64158;BME280;50449;51.528;5.076;2023-05-10T04:26:35;100800.88;;;19.23;53.60
64158;BME280;50449;51.528;5.076;2023-05-10T04:29:00;100805.50;;;19.22;53.14
64158;BME280;50449;51.528;5.076;2023-05-10T04:31:26;100808.25;;;19.22;53.69
64158;BME280;50449;51.528;5.076;2023-05-10T04:33:52;100802.78;;;19.22;53.04
64158;BME280;50449;51.528;5.076;2023-05-10T04:36:18;100814.56;;;19.23;53.31
64158;BME280;50449;51.528;5.076;2023-05-10T04:38:43;100812.94;;;19.22;53.45
64158;BME280;50449;51.528;5.076;2023-05-10T04:41:10;100805.84;;;19.21;53.08
64158;BME280;50449;51.528;5.076;2023-05-10T04:43:36;100806.94;;;19.20;53.14
64158;BME280;50449;51.528;5.076;2023-05-10T04:46:01;100812.13;;;19.21;53.40
64158;BME280;50449;51.528;5.076;2023-05-10T04:48:27;100812.41;;;19.20;53.10
64158;BME280;50449;51.528;5.076;2023-05-10T04:50:52;100805.03;;;19.20;53.01
64158;BME280;50449;51.528;5.076;2023-05-10T04:53:18;100810.78;;;19.19;53.55
64158;BME280;50449;51.528;5.076;2023-05-10T04:55:43;100807.25;;;19.18;53.43
64158;BME280;50449;51.528;5.076;2023-05-10T04:58:09;100809.19;;;19.18;53.57
64158;BME280;50449;51.528;5.076;2023-05-10T05:00:34;100813.00;;;19.17;53.04
64158;BME280;50449;51.528;5.076;2023-05-10T05:03:00;100813.00;;;19.17;53.01
64158;BME280;50449;51.528;5.076;2023-05-10T05:05:26;100815.22;;;19.15;53.56
64158;BME280;50449;51.528;5.076;2023-05-10T05:07:51;100814.75;;;19.13;53.37
64158;BME280;50449;51.528;5.076;2023-05-10T05:10:17;100824.28;;;19.15;53.59
64158;BME280;50449;51.528;5.076;2023-05-10T05:12:42;100822.34;;;19.16;53.13
64158;BME280;50449;51.528;5.076;2023-05-10T05:15:08;100817.47;;;19.13;53.21
64158;BME280;50449;51.528;5.076;2023-05-10T05:17:35;100826.50;;;19.13;53.38
64158;BME280;50449;51.528;5.076;2023-05-10T05:20:00;100831.97;;;19.13;53.35
64158;BME280;50449;51.528;5.076;2023-05-10T05:22:25;100833.91;;;19.13;53.04
64158;BME280;50449;51.528;5.076;2023-05-10T05:24:54;100842.13;;;19.13;53.19
64158;BME280;50449;51.528;5.076;2023-05-10T05:27:20;100844.03;;;19.12;53.01
64158;BME280;50449;51.528;5.076;2023-05-10T05:29:56;100841.28;;;19.12;53.46
64158;BME280;50449;51.528;5.076;2023-05-10T05:32:22;100849.50;;;19.12;53.11
64158;BME280;50449;51.528;5.076;2023-05-10T05:34:48;100852.56;;;19.11;52.97
64158;BME280;50449;51.528;5.076;2023-05-10T05:37:14;100844.34;;;19.11;53.37
64158;BME280;50449;51.528;5.076;2023-05-10T05:39:40;100855.28;;;19.11;52.93
64158;BME280;50449;51.528;5.076;2023-05-10T05:42:06;100850.63;;;19.11;52.99
64158;BME280;50449;51.528;5.076;2023-05-10T05:44:31;100850.63;;;19.11;52.96
64158;BME280;50449;51.528;5.076;2023-05-10T05:46:57;100858.31;;;19.09;53.27
64158;BME280;50449;51.528;5.076;2023-05-10T05:49:22;100854.75;;;19.09;53.30
64158;BME280;50449;51.528;5.076;2023-05-10T05:51:47;100858.31;;;19.09;53.43
64158;BME280;50449;51.528;5.076;2023-05-10T05:54:14;100862.97;;;19.09;52.97
64158;BME280;50449;51.528;5.076;2023-05-10T05:56:40;100858.63;;;19.08;53.43
64158;BME280;50449;51.528;5.076;2023-05-10T05:59:05;100860.53;;;19.07;53.05
64158;BME280;50449;51.528;5.076;2023-05-10T06:01:31;100878.59;;;19.08;53.10
64158;BME280;50449;51.528;5.076;2023-05-10T06:03:56;100864.38;;;19.06;53.00
64158;BME280;50449;51.528;5.076;2023-05-10T06:06:22;100869.84;;;19.06;53.22
64158;BME280;50449;51.528;5.076;2023-05-10T06:08:47;100873.72;;;19.05;53.06
64158;BME280;50449;51.528;5.076;2023-05-10T06:11:12;100863.34;;;19.02;53.33
64158;BME280;50449;51.528;5.076;2023-05-10T06:13:38;100868.00;;;19.01;53.66
64158;BME280;50449;51.528;5.076;2023-05-10T06:16:03;100875.41;;;19.01;53.68
64158;BME280;50449;51.528;5.076;2023-05-10T06:18:29;100864.19;;;19.02;53.49
64158;BME280;50449;51.528;5.076;2023-05-10T06:20:54;100875.13;;;19.02;53.35
64158;BME280;50449;51.528;5.076;2023-05-10T06:23:19;100875.94;;;19.03;53.11
64158;BME280;50449;51.528;5.076;2023-05-10T06:25:45;100877.88;;;19.02;53.65
64158;BME280;50449;51.528;5.076;2023-05-10T06:28:10;100878.97;;;19.01;53.70
64158;BME280;50449;51.528;5.076;2023-05-10T06:30:36;100884.16;;;19.03;53.11
64158;BME280;50449;51.528;5.076;2023-05-10T06:33:02;100887.97;;;19.02;53.49
64158;BME280;50449;51.528;5.076;2023-05-10T06:35:28;100882.81;;;19.00;53.19
64158;BME280;50449;51.528;5.076;2023-05-10T06:37:53;100893.44;;;19.02;53.48
64158;BME280;50449;51.528;5.076;2023-05-10T06:40:19;100893.44;;;19.02;53.52
64158;BME280;50449;51.528;5.076;2023-05-10T06:42:45;100897.03;;;19.02;53.55
64158;BME280;50449;51.528;5.076;2023-05-10T06:45:11;100900.03;;;19.01;53.83
64158;BME280;50449;51.528;5.076;2023-05-10T06:47:36;100904.41;;;19.02;53.77
64158;BME280;50449;51.528;5.076;2023-05-10T06:50:01;100904.13;;;19.03;53.17
64158;BME280;50449;51.528;5.076;2023-05-10T06:52:27;100905.25;;;19.02;53.35
64158;BME280;50449;51.528;5.076;2023-05-10T06:54:52;100901.91;;;19.06;52.96
64158;BME280;50449;51.528;5.076;2023-05-10T06:57:18;100895.38;;;19.01;53.52
64158;BME280;50449;51.528;5.076;2023-05-10T06:59:43;100913.44;;;19.02;53.35
64158;BME280;50449;51.528;5.076;2023-05-10T07:02:08;100910.13;;;19.06;53.42
64158;BME280;50449;51.528;5.076;2023-05-10T07:04:34;100921.06;;;19.06;53.58
64158;BME280;50449;51.528;5.076;2023-05-10T07:06:59;100917.22;;;19.07;53.44
64158;BME280;50449;51.528;5.076;2023-05-10T07:09:25;100918.00;;;19.07;53.15
64158;BME280;50449;51.528;5.076;2023-05-10T07:11:50;100922.16;;;19.05;53.70
64158;BME280;50449;51.528;5.076;2023-05-10T07:14:15;100923.56;;;19.02;53.54
64158;BME280;50449;51.528;5.076;2023-05-10T07:16:41;100920.53;;;19.03;53.22
64158;BME280;50449;51.528;5.076;2023-05-10T07:19:06;100928.53;;;19.00;53.90
64158;BME280;50449;51.528;5.076;2023-05-10T07:21:32;100926.03;;;19.03;53.65
64158;BME280;50449;51.528;5.076;2023-05-10T07:23:57;100927.34;;;19.06;53.18
64158;BME280;50449;51.528;5.076;2023-05-10T07:26:23;100931.22;;;19.05;53.75
64158;BME280;50449;51.528;5.076;2023-05-10T07:28:49;100929.56;;;19.04;53.48
64158;BME280;50449;51.528;5.076;2023-05-10T07:31:14;100928.47;;;19.05;53.46
64158;BME280;50449;51.528;5.076;2023-05-10T07:33:40;100933.09;;;19.05;53.19
64158;BME280;50449;51.528;5.076;2023-05-10T07:36:05;100934.53;;;19.02;53.86
64158;BME280;50449;51.528;5.076;2023-05-10T07:38:31;100932.09;;;19.00;53.54
64158;BME280;50449;51.528;5.076;2023-05-10T07:40:56;100925.50;;;19.01;53.52
64158;BME280;50449;51.528;5.076;2023-05-10T07:43:22;100935.34;;;19.02;53.59
64158;BME280;50449;51.528;5.076;2023-05-10T07:45:47;100927.44;;;19.01;53.69
64158;BME280;50449;51.528;5.076;2023-05-10T07:48:12;100939.72;;;19.03;53.91
64158;BME280;50449;51.528;5.076;2023-05-10T07:50:38;100932.81;;;19.06;53.50
64158;BME280;50449;51.528;5.076;2023-05-10T07:53:03;100938.03;;;19.08;54.06
64158;BME280;50449;51.528;5.076;2023-05-10T07:55:29;100935.22;;;19.13;53.85
64158;BME280;50449;51.528;5.076;2023-05-10T07:57:54;100933.81;;;19.15;53.47
64158;BME280;50449;51.528;5.076;2023-05-10T08:00:20;100937.88;;;19.18;53.61
64158;BME280;50449;51.528;5.076;2023-05-10T08:02:46;100942.50;;;19.17;53.89
64158;BME280;50449;51.528;5.076;2023-05-10T08:05:12;100940.31;;;19.19;53.78
64158;BME280;50449;51.528;5.076;2023-05-10T08:07:38;100946.81;;;19.23;53.87
64158;BME280;50449;51.528;5.076;2023-05-10T08:10:04;100951.50;;;19.23;53.34
64158;BME280;50449;51.528;5.076;2023-05-10T08:12:30;100948.44;;;19.24;53.36
64158;BME280;50449;51.528;5.076;2023-05-10T08:14:55;100948.97;;;19.27;53.84
64158;BME280;50449;51.528;5.076;2023-05-10T08:17:21;100951.09;;;19.30;53.49
64158;BME280;50449;51.528;5.076;2023-05-10T08:19:46;100945.34;;;19.31;53.39
64158;BME280;50449;51.528;5.076;2023-05-10T08:22:12;100950.75;;;19.36;53.49
64158;BME280;50449;51.528;5.076;2023-05-10T08:24:37;100954.53;;;19.40;53.63
64158;BME280;50449;51.528;5.076;2023-05-10T08:27:08;100954.22;;;19.42;53.29
64158;BME280;50449;51.528;5.076;2023-05-10T08:29:33;100962.16;;;19.43;53.53
64158;BME280;50449;51.528;5.076;2023-05-10T08:31:59;100958.53;;;19.48;53.47
64158;BME280;50449;51.528;5.076;2023-05-10T08:34:26;100959.34;;;19.49;53.56
64158;BME280;50449;51.528;5.076;2023-05-10T08:36:51;100960.88;;;19.55;53.44
64158;BME280;50449;51.528;5.076;2023-05-10T08:39:17;100961.38;;;19.57;54.04
64158;BME280;50449;51.528;5.076;2023-05-10T08:41:44;100967.59;;;19.62;54.00
64158;BME280;50449;51.528;5.076;2023-05-10T08:44:10;100965.09;;;19.66;53.63
64158;BME280;50449;51.528;5.076;2023-05-10T08:46:36;100965.09;;;19.66;53.90
64158;BME280;50449;51.528;5.076;2023-05-10T08:49:06;100966.75;;;19.67;53.85
64158;BME280;50449;51.528;5.076;2023-05-10T08:51:35;100970.28;;;19.67;54.42
64158;BME280;50449;51.528;5.076;2023-05-10T08:54:03;100971.03;;;19.73;53.77
64158;BME280;50449;51.528;5.076;2023-05-10T08:56:29;100973.19;;;19.76;53.78
64158;BME280;50449;51.528;5.076;2023-05-10T08:58:57;100976.94;;;19.80;54.29
64158;BME280;50449;51.528;5.076;2023-05-10T09:01:23;100979.31;;;19.87;54.07
64158;BME280;50449;51.528;5.076;2023-05-10T09:03:50;100981.97;;;19.92;54.08
64158;BME280;50449;51.528;5.076;2023-05-10T09:06:16;100981.69;;;19.94;53.87
64158;BME280;50449;51.528;5.076;2023-05-10T09:08:41;100982.41;;;19.99;53.96
64158;BME280;50449;51.528;5.076;2023-05-10T09:11:09;100979.84;;;20.03;54.24
64158;BME280;50449;51.528;5.076;2023-05-10T09:13:36;100985.84;;;20.05;53.99
64158;BME280;50449;51.528;5.076;2023-05-10T09:16:02;100993.00;;;20.06;53.89
64158;BME280;50449;51.528;5.076;2023-05-10T09:18:28;100992.91;;;20.11;53.84
64158;BME280;50449;51.528;5.076;2023-05-10T09:20:54;100993.38;;;20.13;54.11
64158;BME280;50449;51.528;5.076;2023-05-10T09:23:19;100991.16;;;20.15;54.35
64158;BME280;50449;51.528;5.076;2023-05-10T09:25:45;101001.84;;;20.17;54.08
64158;BME280;50449;51.528;5.076;2023-05-10T09:28:11;100999.31;;;20.20;54.21
64158;BME280;50449;51.528;5.076;2023-05-10T09:30:37;101000.63;;;20.23;54.40
64158;BME280;50449;51.528;5.076;2023-05-10T09:33:02;101002.47;;;20.27;54.03
64158;BME280;50449;51.528;5.076;2023-05-10T09:35:31;101006.03;;;20.28;54.42
64158;BME280;50449;51.528;5.076;2023-05-10T09:37:59;101003.59;;;20.26;54.25
64158;BME280;50449;51.528;5.076;2023-05-10T09:40:26;101005.72;;;20.29;54.65
64158;BME280;50449;51.528;5.076;2023-05-10T09:43:01;101006.44;;;20.35;54.42
64158;BME280;50449;51.528;5.076;2023-05-10T09:45:33;101005.03;;;20.38;54.02
64158;BME280;50449;51.528;5.076;2023-05-10T09:47:59;101016.00;;;20.38;54.20
64158;BME280;50449;51.528;5.076;2023-05-10T09:50:26;101015.19;;;20.37;54.27
64158;BME280;50449;51.528;5.076;2023-05-10T09:52:57;101011.56;;;20.42;54.61
64158;BME280;50449;51.528;5.076;2023-05-10T09:58:04;101021.00;;;20.49;53.99
64158;BME280;50449;51.528;5.076;2023-05-10T10:00:36;101018.19;;;20.55;54.37
64158;BME280;50449;51.528;5.076;2023-05-10T10:03:02;101026.13;;;20.56;54.40
64158;BME280;50449;51.528;5.076;2023-05-10T10:05:34;101021.94;;;20.59;54.06
64158;BME280;50449;51.528;5.076;2023-05-10T10:08:02;101022.19;;;20.62;53.83
64158;BME280;50449;51.528;5.076;2023-05-10T10:10:28;101025.13;;;20.66;53.60
64158;BME280;50449;51.528;5.076;2023-05-10T10:12:54;101022.06;;;20.67;53.61
64158;BME280;50449;51.528;5.076;2023-05-10T10:15:21;101020.94;;;20.68;53.91
64158;BME280;50449;51.528;5.076;2023-05-10T10:17:48;101028.09;;;20.69;54.27
64158;BME280;50449;51.528;5.076;2023-05-10T10:20:14;101032.75;;;20.69;53.79
64158;BME280;50449;51.528;5.076;2023-05-10T10:22:40;101034.91;;;20.72;53.84
64158;BME280;50449;51.528;5.076;2023-05-10T10:25:07;101033.47;;;20.74;53.81
64158;BME280;50449;51.528;5.076;2023-05-10T10:35:29;101033.47;;;20.74;54.31
64158;BME280;50449;51.528;5.076;2023-05-10T10:37:56;101039.28;;;20.87;53.51
64158;BME280;50449;51.528;5.076;2023-05-10T10:40:33;101035.78;;;20.81;54.10
64158;BME280;50449;51.528;5.076;2023-05-10T10:43:22;101032.25;;;20.81;53.93
64158;BME280;50449;51.528;5.076;2023-05-10T10:48:36;101028.06;;;20.83;53.88
64158;BME280;50449;51.528;5.076;2023-05-10T10:51:02;101030.00;;;20.83;54.04
64158;BME280;50449;51.528;5.076;2023-05-10T10:53:28;101031.84;;;20.87;53.53
64158;BME280;50449;51.528;5.076;2023-05-10T10:56:13;101032.13;;;20.86;54.04
64158;BME280;50449;51.528;5.076;2023-05-10T10:58:40;101037.84;;;20.89;53.92
64158;BME280;50449;51.528;5.076;2023-05-10T11:01:14;101039.47;;;20.90;53.66
64158;BME280;50449;51.528;5.076;2023-05-10T11:03:40;101036.22;;;20.88;53.85
64158;BME280;50449;51.528;5.076;2023-05-10T11:06:06;101031.75;;;20.92;53.47
64158;BME280;50449;51.528;5.076;2023-05-10T11:08:40;101030.31;;;20.95;53.83
64158;BME280;50449;51.528;5.076;2023-05-10T11:11:08;101032.44;;;20.98;53.68
64158;BME280;50449;51.528;5.076;2023-05-10T11:13:34;101040.69;;;20.98;53.96
64158;BME280;50449;51.528;5.076;2023-05-10T11:18:38;101026.66;;;21.00;53.74
64158;BME280;50449;51.528;5.076;2023-05-10T11:21:04;101030.22;;;21.00;53.51
64158;BME280;50449;51.528;5.076;2023-05-10T11:26:13;101041.09;;;21.05;53.50
64158;BME280;50449;51.528;5.076;2023-05-10T11:31:08;101030.00;;;21.10;53.44
64158;BME280;50449;51.528;5.076;2023-05-10T11:33:48;101036.00;;;21.12;53.31
64158;BME280;50449;51.528;5.076;2023-05-10T11:36:19;101038.53;;;21.09;53.37
64158;BME280;50449;51.528;5.076;2023-05-10T11:38:46;101039.16;;;21.06;53.86
64158;BME280;50449;51.528;5.076;2023-05-10T11:41:12;101037.44;;;21.10;53.51
64158;BME280;50449;51.528;5.076;2023-05-10T11:43:41;101039.56;;;21.13;53.35
64158;BME280;50449;51.528;5.076;2023-05-10T11:46:08;101040.88;;;21.15;53.41
64158;BME280;50449;51.528;5.076;2023-05-10T11:48:34;101043.34;;;21.17;53.54
64158;BME280;50449;51.528;5.076;2023-05-10T11:51:01;101045.47;;;21.20;53.19
64158;BME280;50449;51.528;5.076;2023-05-10T11:53:28;101043.81;;;21.19;53.65
64158;BME280;50449;51.528;5.076;2023-05-10T11:55:54;101054.22;;;21.22;53.45
64158;BME280;50449;51.528;5.076;2023-05-10T11:58:20;101050.53;;;21.27;52.80
64158;BME280;50449;51.528;5.076;2023-05-10T12:00:47;101044.22;;;21.26;52.90
64158;BME280;50449;51.528;5.076;2023-05-10T12:03:13;101047.28;;;21.25;53.30
64158;BME280;50449;51.528;5.076;2023-05-10T12:05:38;101040.97;;;21.24;53.13
64158;BME280;50449;51.528;5.076;2023-05-10T12:08:19;101045.66;;;21.24;53.46
64158;BME280;50449;51.528;5.076;2023-05-10T12:10:45;101055.84;;;21.23;53.28
64158;BME280;50449;51.528;5.076;2023-05-10T12:13:11;101052.16;;;21.28;53.20
64158;BME280;50449;51.528;5.076;2023-05-10T12:15:38;101068.03;;;21.31;53.12
64158;BME280;50449;51.528;5.076;2023-05-10T12:18:03;101061.72;;;21.30;53.20
64158;BME280;50449;51.528;5.076;2023-05-10T12:20:30;101066.09;;;21.31;53.31
64158;BME280;50449;51.528;5.076;2023-05-10T12:22:58;101063.84;;;21.33;53.62
64158;BME280;50449;51.528;5.076;2023-05-10T12:25:30;101067.94;;;21.36;53.14
64158;BME280;50449;51.528;5.076;2023-05-10T12:27:58;101063.25;;;21.36;52.97
64158;BME280;50449;51.528;5.076;2023-05-10T12:30:27;101060.91;;;21.30;53.15
64158;BME280;50449;51.528;5.076;2023-05-10T12:33:00;101074.84;;;21.33;53.33
64158;BME280;50449;51.528;5.076;2023-05-10T12:35:26;101071.00;;;21.34;53.38
64158;BME280;50449;51.528;5.076;2023-05-10T12:37:51;101080.25;;;21.38;53.31
64158;BME280;50449;51.528;5.076;2023-05-10T12:40:17;101077.31;;;21.35;53.47
64158;BME280;50449;51.528;5.076;2023-05-10T12:42:42;101079.25;;;21.34;53.66
64158;BME280;50449;51.528;5.076;2023-05-10T12:45:10;101078.63;;;21.37;53.40
64158;BME280;50449;51.528;5.076;2023-05-10T12:47:36;101081.28;;;21.43;53.06
64158;BME280;50449;51.528;5.076;2023-05-10T12:50:02;101080.47;;;21.42;53.06
64158;BME280;50449;51.528;5.076;2023-05-10T12:52:28;101082.91;;;21.44;52.91
64158;BME280;50449;51.528;5.076;2023-05-10T12:54:53;101088.72;;;21.42;53.23
64158;BME280;50449;51.528;5.076;2023-05-10T12:57:22;101082.78;;;21.49;52.57
64158;BME280;50449;51.528;5.076;2023-05-10T12:59:47;101088.28;;;21.49;53.14
64158;BME280;50449;51.528;5.076;2023-05-10T13:02:13;101084.91;;;21.52;52.84
64158;BME280;50449;51.528;5.076;2023-05-10T13:04:40;101084.13;;;21.51;53.03
64158;BME280;50449;51.528;5.076;2023-05-10T13:07:09;101084.31;;;21.55;52.98
64158;BME280;50449;51.528;5.076;2023-05-10T13:09:35;101091.44;;;21.56;52.72
64158;BME280;50449;51.528;5.076;2023-05-10T13:12:00;101092.25;;;21.56;52.62
64158;BME280;50449;51.528;5.076;2023-05-10T13:14:26;101086.44;;;21.58;52.57
64158;BME280;50449;51.528;5.076;2023-05-10T13:16:52;101096.31;;;21.59;52.89
64158;BME280;50449;51.528;5.076;2023-05-10T13:19:17;101087.25;;;21.58;52.83
64158;BME280;50449;51.528;5.076;2023-05-10T13:21:43;101098.25;;;21.58;53.13
64158;BME280;50449;51.528;5.076;2023-05-10T13:24:11;101090.59;;;21.69;52.78
64158;BME280;50449;51.528;5.076;2023-05-10T13:26:39;101094.59;;;21.63;52.65